X  Zamknij Lotniskowe dane METAR     EDDH Hamburg Helmut Schmidt Airport
Temperatura
13°C Temperatura
12°C Punkt rosy
94% Wilgotność



Wiatr
5 MPH
8 KM/H
2 M/S
4 KTS



60°
ENE
Warunki bieżące

Lekkie Deszcz Deszcz Lekkie Deszcz Deszcz
Ciśnienie 1015.92 (hPa) - 30 (inHg)
Widoczność 6 (mil) - 9.7 (km)
Lotnisko
Kod lotniska EDDH

Położenie: Hamburg Helmut Schmidt Airport
Odległość: 11 (mi)

Metar:
EDDH 281650Z AUTO 06004KT 9999 -SHRA SCT042 FEW///TCU 13/12 Q1016 NOSIG

Czas: 28-05-2024 18:50 CEST